Terminal Aerodrome Forecast
Issued by NWS Sterling, VA

Current Version | Previous Version | Text Only | Print | Product List | Glossary Off
Versions: 1 2 3 4 5 6 7 8 9 10 11 12 13 14 15 16 17 18 19 20 21 22 23 24

000
FTUS41 KLWX 220533
TAFIAD
TAF
KIAD 220533Z 2206/2312 02006KT 6SM BR BKN010
     FM220900 36006KT 6SM -SHRA BR OVC015
     FM221200 36008KT 6SM -SHRA BR OVC025
     FM221500 35008KT P6SM VCSH OVC025
     FM221800 36007KT 6SM -SHRA BR OVC025
     FM230100 35004KT 6SM -SHRA BR OVC035=

USA.gov is the U.S. government's official web portal to all federal, state and local government web resources and services.